Time;durP1;ratioP1;P1;durP2;ratioP2;P2;SDS_P1;SDS_P2;PMS_P1;PMS_P2;Temp;Humidity;BMP_temperature;BMP_pressure;BME280_temperature;BME280_humidity;BME280_pressure;Samples;Min_cycle;Max_cycle;Signal;HPM_P1;HPM_P2
2023/03/23 00:01:36;;;;;;;14.52;9.77;;;;;;;;;;5133304;27;20050;-84
2023/03/23 00:04:03;;;;;;;14.30;10.15;;;;;;;;;;5119730;27;20047;-81
2023/03/23 00:06:32;;;;;;;17.55;9.88;;;;;;;;;;5147552;27;20035;-80
2023/03/23 00:08:59;;;;;;;15.35;9.48;;;;;;;;;;5153551;27;20407;-81
2023/03/23 00:11:28;;;;;;;15.70;9.10;;;;;;;;;;5142855;27;20436;-85
2023/03/23 00:13:57;;;;;;;15.05;8.60;;;;;;;;;;5141554;27;20047;-81
2023/03/23 00:16:37;;;;;;;14.98;9.10;;;;;;;;;;5144822;27;20057;-81
2023/03/23 00:19:04;;;;;;;11.90;8.48;;;;;;;;;;5153351;27;20102;-81
2023/03/23 00:21:38;;;;;;;19.25;9.07;;;;;;;;;;5135945;27;20054;-81
2023/03/23 00:24:10;;;;;;;15.88;8.25;;;;;;;;;;5150139;27;20047;-84
2023/03/23 00:26:40;;;;;;;16.73;8.95;;;;;;;;;;5115894;27;20066;-84
2023/03/23 00:29:07;;;;;;;12.10;7.75;;;;;;;;;;5120305;27;20486;-80
2023/03/23 00:31:34;;;;;;;12.32;7.57;;;;;;;;;;5153436;27;20050;-81
2023/03/23 00:34:03;;;;;;;13.85;8.18;;;;;;;;;;5135548;27;20091;-79
2023/03/23 00:36:30;;;;;;;13.77;8.10;;;;;;;;;;5152559;27;20050;-81
2023/03/23 00:38:57;;;;;;;12.60;7.47;;;;;;;;;;5135547;27;20038;-81
2023/03/23 00:41:26;;;;;;;13.60;7.38;;;;;;;;;;5136641;27;20102;-82
2023/03/23 00:43:53;;;;;;;12.50;7.43;;;;;;;;;;5152957;27;20042;-81
2023/03/23 00:46:20;;;;;;;14.40;7.05;;;;;;;;;;5138840;27;20050;-84
2023/03/23 00:48:46;;;;;;;13.68;7.38;;;;;;;;;;5146082;27;20043;-80
2023/03/23 00:51:12;;;;;;;12.02;7.10;;;;;;;;;;5145943;27;20084;-84
2023/03/23 00:53:40;;;;;;;12.27;6.85;;;;;;;;;;5139295;27;20038;-84
2023/03/23 00:56:06;;;;;;;12.25;6.68;;;;;;;;;;5135887;27;20113;-81
2023/03/23 00:58:32;;;;;;;12.00;6.35;;;;;;;;;;5152892;27;20042;-80
2023/03/23 01:00:58;;;;;;;12.02;6.13;;;;;;;;;;5153169;27;20043;-85
2023/03/23 01:03:25;;;;;;;10.98;6.25;;;;;;;;;;5153033;27;20053;-80
2023/03/23 01:05:52;;;;;;;13.35;7.10;;;;;;;;;;5144844;27;20088;-84
2023/03/23 01:08:18;;;;;;;8.90;5.93;;;;;;;;;;5132730;27;20072;-84
2023/03/23 01:10:45;;;;;;;14.07;6.45;;;;;;;;;;5121468;27;20043;-81
2023/03/23 01:13:11;;;;;;;8.82;5.78;;;;;;;;;;5152796;27;20155;-78
2023/03/23 01:15:38;;;;;;;12.00;6.10;;;;;;;;;;5142232;27;20440;-85
2023/03/23 01:18:04;;;;;;;11.82;5.80;;;;;;;;;;5134472;27;20166;-81
2023/03/23 01:20:31;;;;;;;9.07;6.00;;;;;;;;;;5144158;27;20071;-84
2023/03/23 01:23:00;;;;;;;10.93;5.45;;;;;;;;;;5145933;27;20394;-79
2023/03/23 01:25:28;;;;;;;10.32;5.88;;;;;;;;;;5152846;27;20407;-82
2023/03/23 01:27:55;;;;;;;11.27;5.72;;;;;;;;;;5151820;27;20050;-84
2023/03/23 01:30:21;;;;;;;8.13;5.40;;;;;;;;;;5115443;28;20039;-84
2023/03/23 01:32:47;;;;;;;9.18;5.43;;;;;;;;;;5136209;27;20499;-81
2023/03/23 01:35:13;;;;;;;13.98;5.57;;;;;;;;;;5152513;27;20090;-81
2023/03/23 01:37:40;;;;;;;13.40;6.05;;;;;;;;;;5152558;27;20039;-80
2023/03/23 01:40:10;;;;;;;10.68;5.72;;;;;;;;;;5152147;27;20199;-80
2023/03/23 01:42:37;;;;;;;8.98;5.32;;;;;;;;;;5146146;27;20043;-84
2023/03/23 01:45:18;;;;;;;9.80;5.78;;;;;;;;;;5136407;27;20491;-80
2023/03/23 01:47:44;;;;;;;10.25;5.45;;;;;;;;;;5152785;27;20045;-80
2023/03/23 01:50:11;;;;;;;11.98;5.45;;;;;;;;;;5134409;27;20071;-80
2023/03/23 01:52:37;;;;;;;13.70;5.40;;;;;;;;;;5129865;27;20050;-85
2023/03/23 01:55:04;;;;;;;12.07;5.63;;;;;;;;;;5139817;27;20099;-85
2023/03/23 01:57:31;;;;;;;10.68;5.82;;;;;;;;;;5128054;27;20057;-81
2023/03/23 01:59:58;;;;;;;8.85;5.28;;;;;;;;;;5138602;27;20085;-79
2023/03/23 02:02:26;;;;;;;11.23;4.90;;;;;;;;;;5144612;27;20541;-80
2023/03/23 02:04:53;;;;;;;12.00;5.38;;;;;;;;;;5155997;27;20042;-82
2023/03/23 02:07:21;;;;;;;7.57;4.88;;;;;;;;;;5141465;27;20134;-79
2023/03/23 02:09:47;;;;;;;10.80;4.90;;;;;;;;;;5138765;27;20037;-80
2023/03/23 02:12:14;;;;;;;11.27;5.60;;;;;;;;;;5155706;27;20042;-79
2023/03/23 02:14:40;;;;;;;10.98;5.82;;;;;;;;;;5159471;27;20050;-80
2023/03/23 02:17:25;;;;;;;8.25;4.85;;;;;;;;;;5158931;27;20049;-80
2023/03/23 02:20:06;;;;;;;9.73;5.28;;;;;;;;;;5142186;27;20042;-80
2023/03/23 02:22:47;;;;;;;7.97;4.57;;;;;;;;;;5159456;27;20569;-80
2023/03/23 02:25:22;;;;;;;10.75;4.57;;;;;;;;;;5159014;27;20397;-80
2023/03/23 02:28:04;;;;;;;7.10;4.28;;;;;;;;;;5160077;27;20107;-85
2023/03/23 02:30:33;;;;;;;10.00;4.97;;;;;;;;;;5159091;27;20454;-79
2023/03/23 02:33:17;;;;;;;8.55;4.65;;;;;;;;;;5158851;27;20038;-80
2023/03/23 02:36:04;;;;;;;10.50;4.55;;;;;;;;;;5171495;27;20435;-80
2023/03/23 02:38:36;;;;;;;7.82;4.43;;;;;;;;;;5157697;27;20551;-84
2023/03/23 02:41:03;;;;;;;14.23;4.45;;;;;;;;;;5151348;27;20054;-80
2023/03/23 02:43:31;;;;;;;8.60;4.45;;;;;;;;;;5152627;27;20040;-80
2023/03/23 02:45:58;;;;;;;8.20;4.35;;;;;;;;;;5138573;27;20039;-83
2023/03/23 02:48:27;;;;;;;9.85;4.95;;;;;;;;;;5139547;27;20034;-80
2023/03/23 02:50:53;;;;;;;7.47;3.95;;;;;;;;;;5158701;27;20041;-78
2023/03/23 02:53:22;;;;;;;8.85;4.00;;;;;;;;;;5134356;27;20039;-80
2023/03/23 02:55:52;;;;;;;10.20;4.20;;;;;;;;;;5133197;27;20115;-80
2023/03/23 02:58:19;;;;;;;9.18;4.20;;;;;;;;;;5109761;27;20476;-80
2023/03/23 03:00:49;;;;;;;9.75;4.10;;;;;;;;;;5151773;27;20073;-79
2023/03/23 03:03:17;;;;;;;6.28;3.88;;;;;;;;;;5135045;27;20127;-79
2023/03/23 03:05:59;;;;;;;8.43;4.07;;;;;;;;;;5136479;27;20049;-78
2023/03/23 03:08:29;;;;;;;12.60;3.85;;;;;;;;;;5137923;27;20039;-84
2023/03/23 03:11:01;;;;;;;9.73;4.45;;;;;;;;;;5132448;27;20043;-79
2023/03/23 03:13:33;;;;;;;9.93;4.18;;;;;;;;;;5129662;27;20436;-79
2023/03/23 03:16:26;;;;;;;6.40;3.97;;;;;;;;;;5137236;27;20106;-79
2023/03/23 03:18:55;;;;;;;11.02;4.10;;;;;;;;;;5099212;27;20126;-80
2023/03/23 03:21:25;;;;;;;10.48;3.88;;;;;;;;;;5137511;27;20527;-80
2023/03/23 03:23:53;;;;;;;8.95;4.50;;;;;;;;;;5137838;27;20050;-83
2023/03/23 03:26:20;;;;;;;8.52;4.13;;;;;;;;;;5120206;27;20125;-84
2023/03/23 03:28:48;;;;;;;9.68;4.78;;;;;;;;;;5125774;27;20081;-81
2023/03/23 03:31:15;;;;;;;8.90;4.20;;;;;;;;;;5152995;27;20041;-81
2023/03/23 03:33:42;;;;;;;7.43;4.15;;;;;;;;;;5120213;27;20042;-84
2023/03/23 03:36:15;;;;;;;9.07;4.18;;;;;;;;;;5120669;27;20379;-83
2023/03/23 03:38:42;;;;;;;8.10;4.40;;;;;;;;;;5128193;27;20403;-79
2023/03/23 03:41:11;;;;;;;7.80;4.45;;;;;;;;;;5134194;27;20166;-84
2023/03/23 03:43:37;;;;;;;7.63;4.00;;;;;;;;;;5129701;27;20559;-85
2023/03/23 03:46:03;;;;;;;9.00;4.00;;;;;;;;;;5131166;27;20043;-85
2023/03/23 03:48:30;;;;;;;7.78;3.80;;;;;;;;;;5119980;27;20035;-80
2023/03/23 03:50:56;;;;;;;6.93;3.83;;;;;;;;;;5108040;27;20082;-86
2023/03/23 03:53:25;;;;;;;6.75;3.80;;;;;;;;;;5118135;27;20034;-83
2023/03/23 03:55:55;;;;;;;9.38;4.63;;;;;;;;;;5137481;27;20039;-85
2023/03/23 03:58:22;;;;;;;8.30;4.00;;;;;;;;;;5129686;27;20037;-85
2023/03/23 04:00:48;;;;;;;9.50;4.15;;;;;;;;;;5120794;27;20046;-85
2023/03/23 04:03:16;;;;;;;10.25;4.22;;;;;;;;;;5137104;27;20078;-84
2023/03/23 04:05:44;;;;;;;8.38;4.10;;;;;;;;;;5123434;27;20053;-85
2023/03/23 04:08:11;;;;;;;7.28;4.22;;;;;;;;;;5137355;27;20483;-81
2023/03/23 04:10:37;;;;;;;7.65;3.97;;;;;;;;;;5137292;27;20046;-84
2023/03/23 04:13:06;;;;;;;9.48;4.00;;;;;;;;;;5137163;27;20329;-79
2023/03/23 04:15:32;;;;;;;9.63;4.32;;;;;;;;;;5118608;27;20046;-82
2023/03/23 04:17:58;;;;;;;10.98;4.18;;;;;;;;;;5137030;27;20038;-81
2023/03/23 04:20:26;;;;;;;13.38;4.47;;;;;;;;;;5118891;27;20072;-81
2023/03/23 04:22:54;;;;;;;9.52;4.22;;;;;;;;;;5128736;27;20122;-81
2023/03/23 04:25:21;;;;;;;9.50;4.60;;;;;;;;;;5130256;27;20494;-80
2023/03/23 04:27:52;;;;;;;8.45;3.65;;;;;;;;;;5119385;27;20041;-84
2023/03/23 04:30:19;;;;;;;10.60;3.15;;;;;;;;;;5136972;27;20038;-82
2023/03/23 04:32:45;;;;;;;9.38;3.25;;;;;;;;;;5136153;27;20039;-79
2023/03/23 04:35:13;;;;;;;7.97;2.55;;;;;;;;;;5154178;27;20034;-81
2023/03/23 04:37:41;;;;;;;5.97;1.98;;;;;;;;;;5136589;27;20045;-84
2023/03/23 04:40:11;;;;;;;7.20;1.80;;;;;;;;;;5136545;27;20043;-84
2023/03/23 04:42:37;;;;;;;7.95;1.50;;;;;;;;;;5119012;27;20095;-81
2023/03/23 04:45:05;;;;;;;6.53;1.40;;;;;;;;;;5119066;27;20471;-80
2023/03/23 04:47:32;;;;;;;7.13;1.75;;;;;;;;;;5119045;27;20407;-84
2023/03/23 04:49:58;;;;;;;4.72;1.95;;;;;;;;;;5119282;27;20398;-84
2023/03/23 04:52:28;;;;;;;8.50;1.40;;;;;;;;;;5136466;27;20114;-85
2023/03/23 04:54:58;;;;;;;6.75;2.05;;;;;;;;;;5136129;27;20038;-82
2023/03/23 04:57:27;;;;;;;10.15;2.28;;;;;;;;;;5135400;27;20376;-81
2023/03/23 04:59:53;;;;;;;10.15;2.17;;;;;;;;;;5135553;27;20045;-81
2023/03/23 05:02:19;;;;;;;11.43;2.92;;;;;;;;;;5124314;27;20047;-84
2023/03/23 05:04:45;;;;;;;13.30;3.70;;;;;;;;;;5114772;27;20038;-83
2023/03/23 05:07:12;;;;;;;11.80;2.67;;;;;;;;;;5135489;27;20547;-84
2023/03/23 05:09:38;;;;;;;14.93;2.47;;;;;;;;;;5135215;27;20043;-81
2023/03/23 05:12:08;;;;;;;13.73;3.08;;;;;;;;;;5135506;27;20502;-81
2023/03/23 05:14:34;;;;;;;9.32;2.35;;;;;;;;;;5134984;27;20042;-82
2023/03/23 05:17:00;;;;;;;10.68;2.75;;;;;;;;;;5118711;27;20043;-85
2023/03/23 05:19:27;;;;;;;11.48;2.50;;;;;;;;;;5136170;27;20039;-86
2023/03/23 05:21:54;;;;;;;12.75;2.17;;;;;;;;;;5118271;27;20353;-81
2023/03/23 05:24:20;;;;;;;11.85;2.42;;;;;;;;;;5118188;27;20483;-85
2023/03/23 05:26:48;;;;;;;16.15;2.50;;;;;;;;;;5135502;27;20047;-81
2023/03/23 05:29:15;;;;;;;14.43;2.30;;;;;;;;;;5166390;27;20050;-79
2023/03/23 05:31:41;;;;;;;12.23;2.38;;;;;;;;;;5135180;27;20119;-80
2023/03/23 05:34:07;;;;;;;11.13;2.47;;;;;;;;;;5135219;27;20041;-80
2023/03/23 05:36:34;;;;;;;13.50;2.45;;;;;;;;;;5135004;27;20040;-81
2023/03/23 05:39:03;;;;;;;13.23;2.80;;;;;;;;;;5153841;27;20513;-83
2023/03/23 05:41:29;;;;;;;12.60;2.33;;;;;;;;;;5142639;27;20038;-81
2023/03/23 05:43:55;;;;;;;13.35;2.50;;;;;;;;;;5140138;27;20070;-81
2023/03/23 05:46:22;;;;;;;13.60;2.60;;;;;;;;;;5135020;27;20041;-80
2023/03/23 05:48:48;;;;;;;12.98;2.38;;;;;;;;;;5118578;27;20047;-80
2023/03/23 05:51:14;;;;;;;13.00;2.38;;;;;;;;;;5134851;27;20057;-84
2023/03/23 05:53:40;;;;;;;12.98;3.30;;;;;;;;;;5154108;27;20035;-84
2023/03/23 05:56:07;;;;;;;11.45;2.40;;;;;;;;;;5117689;27;20043;-80
2023/03/23 05:58:33;;;;;;;11.55;2.50;;;;;;;;;;5135131;27;20046;-83
2023/03/23 06:00:59;;;;;;;15.60;3.33;;;;;;;;;;5130809;27;20039;-83
2023/03/23 06:03:25;;;;;;;12.63;2.55;;;;;;;;;;5124720;27;20470;-81
2023/03/23 06:05:52;;;;;;;12.88;2.88;;;;;;;;;;5118329;27;20057;-84
2023/03/23 06:08:18;;;;;;;10.90;2.80;;;;;;;;;;5135207;27;20058;-81
2023/03/23 06:10:44;;;;;;;15.23;2.72;;;;;;;;;;5117458;27;20035;-81
2023/03/23 06:13:10;;;;;;;14.27;2.92;;;;;;;;;;5118174;27;20041;-84
2023/03/23 06:15:37;;;;;;;14.82;2.80;;;;;;;;;;5115672;27;20046;-83
2023/03/23 06:18:03;;;;;;;12.98;2.85;;;;;;;;;;5114536;28;20047;-81
2023/03/23 06:20:30;;;;;;;22.60;9.35;;;;;;;;;;5135328;27;20057;-81
2023/03/23 06:22:56;;;;;;;18.52;3.92;;;;;;;;;;5138209;27;20034;-80
2023/03/23 06:25:23;;;;;;;16.33;3.67;;;;;;;;;;5155743;27;20541;-79
2023/03/23 06:27:51;;;;;;;21.48;3.50;;;;;;;;;;5155235;27;20046;-80
2023/03/23 06:30:17;;;;;;;19.73;2.90;;;;;;;;;;5155188;27;20038;-80
2023/03/23 06:32:46;;;;;;;18.25;3.17;;;;;;;;;;5138168;27;20643;-80
2023/03/23 06:35:12;;;;;;;17.27;3.25;;;;;;;;;;5147080;27;20043;-81
2023/03/23 06:37:38;;;;;;;13.38;2.72;;;;;;;;;;5172162;27;20390;-79
2023/03/23 06:40:09;;;;;;;17.13;2.88;;;;;;;;;;5159000;27;20050;-79
2023/03/23 06:42:35;;;;;;;12.68;3.25;;;;;;;;;;5141437;27;20124;-80
2023/03/23 06:45:03;;;;;;;20.67;3.53;;;;;;;;;;5164877;27;20137;-79
2023/03/23 06:47:29;;;;;;;23.13;3.65;;;;;;;;;;5156193;27;20102;-81
2023/03/23 06:49:56;;;;;;;19.25;2.90;;;;;;;;;;5158605;27;20122;-80
2023/03/23 06:52:22;;;;;;;19.10;3.75;;;;;;;;;;5124759;27;20068;-79
2023/03/23 06:54:52;;;;;;;21.33;3.42;;;;;;;;;;5153843;27;20078;-80
2023/03/23 06:57:18;;;;;;;15.52;3.15;;;;;;;;;;5115559;27;20453;-79
2023/03/23 06:59:45;;;;;;;16.50;2.47;;;;;;;;;;5156078;27;20137;-80
2023/03/23 07:02:13;;;;;;;15.95;3.15;;;;;;;;;;5140280;27;20390;-85
2023/03/23 07:04:40;;;;;;;22.83;3.30;;;;;;;;;;5130181;27;20512;-83
2023/03/23 07:07:08;;;;;;;24.05;3.10;;;;;;;;;;5122155;27;20446;-79
2023/03/23 07:09:34;;;;;;;18.48;3.50;;;;;;;;;;5158038;27;20053;-80
2023/03/23 07:12:00;;;;;;;17.20;2.65;;;;;;;;;;5141053;27;20045;-81
2023/03/23 07:14:26;;;;;;;19.88;3.55;;;;;;;;;;5141266;27;20565;-81
2023/03/23 07:16:53;;;;;;;22.35;3.28;;;;;;;;;;5157842;27;20050;-80
2023/03/23 07:19:20;;;;;;;15.13;2.95;;;;;;;;;;5158319;27;20054;-80
2023/03/23 07:21:46;;;;;;;16.92;3.25;;;;;;;;;;5141008;27;20439;-80
2023/03/23 07:24:15;;;;;;;22.88;3.85;;;;;;;;;;5176853;27;20031;-80
2023/03/23 07:26:41;;;;;;;19.50;3.13;;;;;;;;;;5157980;27;20042;-83
2023/03/23 07:29:08;;;;;;;19.48;3.42;;;;;;;;;;5155695;27;20395;-83
2023/03/23 07:31:34;;;;;;;20.42;3.47;;;;;;;;;;5120216;27;20054;-80
2023/03/23 07:34:01;;;;;;;18.70;3.15;;;;;;;;;;5153008;27;20038;-84
2023/03/23 07:36:27;;;;;;;20.55;4.32;;;;;;;;;;5151301;27;20566;-83
2023/03/23 07:38:53;;;;;;;23.58;4.20;;;;;;;;;;5120447;27;20122;-84
2023/03/23 07:41:19;;;;;;;20.02;3.50;;;;;;;;;;5137073;27;20039;-79
2023/03/23 07:43:45;;;;;;;24.52;3.95;;;;;;;;;;5137707;27;20147;-83
2023/03/23 07:46:12;;;;;;;16.85;3.65;;;;;;;;;;5140582;27;20121;-84
2023/03/23 07:48:38;;;;;;;18.25;3.97;;;;;;;;;;5131078;27;20041;-84
2023/03/23 07:51:05;;;;;;;19.02;3.45;;;;;;;;;;5138683;27;20125;-81
2023/03/23 07:53:31;;;;;;;23.77;4.65;;;;;;;;;;5176798;27;20079;-84
2023/03/23 07:55:58;;;;;;;24.75;3.58;;;;;;;;;;5143641;27;20050;-83
2023/03/23 07:58:25;;;;;;;19.30;4.20;;;;;;;;;;5120183;27;20466;-84
2023/03/23 08:00:52;;;;;;;22.55;3.80;;;;;;;;;;5143799;27;20049;-84
2023/03/23 08:03:19;;;;;;;25.73;4.45;;;;;;;;;;5136985;27;20071;-83
2023/03/23 08:05:45;;;;;;;25.67;4.43;;;;;;;;;;5136741;27;20074;-84
2023/03/23 08:08:12;;;;;;;21.58;3.75;;;;;;;;;;5155572;27;20457;-83
2023/03/23 08:10:38;;;;;;;23.15;4.00;;;;;;;;;;5119833;27;20117;-83
2023/03/23 08:13:05;;;;;;;22.98;4.80;;;;;;;;;;5136934;27;20047;-83
2023/03/23 08:15:32;;;;;;;20.80;3.42;;;;;;;;;;5136535;27;20096;-83
2023/03/23 08:18:00;;;;;;;23.23;4.30;;;;;;;;;;5121883;27;20062;-83
2023/03/23 08:20:26;;;;;;;21.65;3.67;;;;;;;;;;5136763;27;20129;-78
2023/03/23 08:22:55;;;;;;;22.92;4.35;;;;;;;;;;5136630;27;20034;-84
2023/03/23 08:25:21;;;;;;;22.48;3.80;;;;;;;;;;5137023;27;20495;-81
2023/03/23 08:27:48;;;;;;;23.80;4.00;;;;;;;;;;5152637;27;20038;-79
2023/03/23 08:30:15;;;;;;;23.95;3.83;;;;;;;;;;5156974;27;20050;-80
2023/03/23 08:32:42;;;;;;;21.90;3.88;;;;;;;;;;5156604;27;20034;-78
2023/03/23 08:35:10;;;;;;;22.98;3.80;;;;;;;;;;5156785;27;20042;-80
2023/03/23 08:37:37;;;;;;;21.58;3.70;;;;;;;;;;5139606;27;20042;-81
2023/03/23 08:40:08;;;;;;;23.73;4.22;;;;;;;;;;5155939;27;20050;-82
2023/03/23 08:42:34;;;;;;;22.73;3.80;;;;;;;;;;5147116;27;20038;-82
2023/03/23 08:45:01;;;;;;;24.38;3.83;;;;;;;;;;5138136;27;20051;-83
2023/03/23 08:47:27;;;;;;;26.23;4.63;;;;;;;;;;5156985;27;20102;-83
2023/03/23 08:49:53;;;;;;;23.60;3.50;;;;;;;;;;5142990;27;20050;-84
2023/03/23 08:52:20;;;;;;;24.73;4.93;;;;;;;;;;5126900;27;20038;-84
2023/03/23 08:54:47;;;;;;;21.45;4.55;;;;;;;;;;5145407;27;20043;-84
2023/03/23 08:57:14;;;;;;;29.42;4.00;;;;;;;;;;5105882;27;20037;-77
2023/03/23 08:59:41;;;;;;;30.42;5.20;;;;;;;;;;5155919;27;20046;-80
2023/03/23 09:02:09;;;;;;;22.70;4.47;;;;;;;;;;5170828;27;20034;-80
2023/03/23 09:04:36;;;;;;;20.55;4.00;;;;;;;;;;5156548;27;20402;-80
2023/03/23 09:07:02;;;;;;;23.85;3.78;;;;;;;;;;5155965;27;20097;-79
2023/03/23 09:09:28;;;;;;;20.90;4.00;;;;;;;;;;5156055;27;20102;-84
2023/03/23 09:11:54;;;;;;;17.85;3.70;;;;;;;;;;5139117;27;20042;-80
2023/03/23 09:14:20;;;;;;;21.20;4.75;;;;;;;;;;5132420;27;20483;-85
2023/03/23 09:16:47;;;;;;;19.58;4.95;;;;;;;;;;5152971;27;20069;-84
2023/03/23 09:19:13;;;;;;;21.15;3.92;;;;;;;;;;5136266;27;20038;-80
2023/03/23 09:21:39;;;;;;;23.55;4.20;;;;;;;;;;5150927;27;20078;-80
2023/03/23 09:24:05;;;;;;;17.35;3.40;;;;;;;;;;5174631;27;20091;-77
2023/03/23 09:26:32;;;;;;;20.77;3.67;;;;;;;;;;5156176;27;20039;-79
2023/03/23 09:28:58;;;;;;;18.20;3.10;;;;;;;;;;5156049;27;20125;-83
2023/03/23 09:31:26;;;;;;;18.38;3.55;;;;;;;;;;5153806;27;20554;-81
2023/03/23 09:33:55;;;;;;;17.88;3.38;;;;;;;;;;5118248;27;20039;-79
2023/03/23 09:36:21;;;;;;;25.17;3.53;;;;;;;;;;5151081;27;20499;-79
2023/03/23 09:38:48;;;;;;;18.02;3.40;;;;;;;;;;5156102;27;20093;-80
2023/03/23 09:41:17;;;;;;;21.20;3.72;;;;;;;;;;5156044;27;20421;-83
2023/03/23 09:43:49;;;;;;;17.63;3.80;;;;;;;;;;5175024;27;20389;-79
2023/03/23 09:46:38;;;;;;;20.02;3.70;;;;;;;;;;5141278;27;20391;-80
2023/03/23 09:49:10;;;;;;;24.35;3.95;;;;;;;;;;5142273;27;20042;-80
2023/03/23 09:51:36;;;;;;;20.15;3.60;;;;;;;;;;5155867;27;20042;-80
2023/03/23 09:54:22;;;;;;;17.88;3.10;;;;;;;;;;5138658;27;20034;-79
2023/03/23 09:56:50;;;;;;;16.45;3.00;;;;;;;;;;5155431;27;20030;-80
2023/03/23 09:59:25;;;;;;;23.85;3.70;;;;;;;;;;5145909;27;20051;-84
2023/03/23 10:01:53;;;;;;;14.67;3.20;;;;;;;;;;5132211;27;20056;-79
2023/03/23 10:04:23;;;;;;;16.60;2.90;;;;;;;;;;5107010;27;20121;-77
2023/03/23 10:06:50;;;;;;;20.83;3.05;;;;;;;;;;5134930;27;20039;-80
2023/03/23 10:09:18;;;;;;;19.50;3.05;;;;;;;;;;5121900;27;20665;-80
2023/03/23 10:11:47;;;;;;;14.13;2.67;;;;;;;;;;5140585;27;20507;-78
2023/03/23 10:14:27;;;;;;;18.65;3.38;;;;;;;;;;5138708;27;20497;-78
2023/03/23 10:17:09;;;;;;;18.02;3.25;;;;;;;;;;5138553;27;20055;-79
2023/03/23 10:19:38;;;;;;;15.50;2.90;;;;;;;;;;5121575;27;20045;-79
2023/03/23 10:22:11;;;;;;;14.30;2.67;;;;;;;;;;5120791;27;20089;-77
2023/03/23 10:24:46;;;;;;;14.60;3.30;;;;;;;;;;5145815;27;20046;-79
2023/03/23 10:27:19;;;;;;;16.85;2.90;;;;;;;;;;5158760;27;20046;-80
2023/03/23 10:29:52;;;;;;;14.00;2.83;;;;;;;;;;5159687;27;20478;-80
2023/03/23 10:32:21;;;;;;;15.32;2.80;;;;;;;;;;5177894;27;20042;-79
2023/03/23 10:34:58;;;;;;;11.85;2.67;;;;;;;;;;5159154;27;20046;-80
2023/03/23 10:37:27;;;;;;;9.45;2.30;;;;;;;;;;5159017;27;20046;-79
2023/03/23 10:39:55;;;;;;;11.43;2.67;;;;;;;;;;5159600;27;20038;-79
2023/03/23 10:42:35;;;;;;;16.33;3.05;;;;;;;;;;5158359;27;20125;-81
2023/03/23 10:45:12;;;;;;;12.70;3.05;;;;;;;;;;5158643;27;20038;-80
2023/03/23 10:47:40;;;;;;;12.27;2.80;;;;;;;;;;5159433;27;20038;-85
2023/03/23 10:50:13;;;;;;;11.18;2.90;;;;;;;;;;5177965;27;20497;-86
2023/03/23 10:52:40;;;;;;;9.23;2.28;;;;;;;;;;5117078;27;20498;-85
2023/03/23 10:55:09;;;;;;;10.93;2.75;;;;;;;;;;5118380;27;20070;-86
2023/03/23 10:57:37;;;;;;;12.20;2.53;;;;;;;;;;5140358;27;20033;-80
2023/03/23 11:00:07;;;;;;;12.63;2.97;;;;;;;;;;5158529;27;20034;-79
2023/03/23 11:02:38;;;;;;;9.70;2.10;;;;;;;;;;5151055;27;20050;-80
2023/03/23 11:05:07;;;;;;;11.88;2.97;;;;;;;;;;5158262;27;20085;-79
2023/03/23 11:07:34;;;;;;;9.93;2.40;;;;;;;;;;5162569;27;20034;-81
2023/03/23 11:10:21;;;;;;;9.73;2.50;;;;;;;;;;5158231;27;20046;-86
2023/03/23 11:12:47;;;;;;;;;;;;;;;;;;5146512;27;20034;-85
2023/03/23 11:15:14;;;;;;;;;;;;;;;;;;5138362;27;20052;-80
2023/03/23 11:17:41;;;;;;;10.55;2.28;;;;;;;;;;5149726;27;19921;-79
2023/03/23 11:20:11;;;;;;;13.77;2.83;;;;;;;;;;5157787;27;20046;-80
2023/03/23 11:22:38;;;;;;;15.02;3.30;;;;;;;;;;5157385;27;20042;-80
2023/03/23 11:25:05;;;;;;;14.80;2.85;;;;;;;;;;5157877;27;20056;-78
2023/03/23 11:27:32;;;;;;;13.48;2.90;;;;;;;;;;5142755;27;20042;-85
2023/03/23 11:30:09;;;;;;;10.98;2.70;;;;;;;;;;5128403;27;20030;-80
2023/03/23 11:32:36;;;;;;;13.43;2.95;;;;;;;;;;5158401;27;20405;-79
2023/03/23 11:35:04;;;;;;;12.88;2.40;;;;;;;;;;5157933;27;20067;-80
2023/03/23 11:37:33;;;;;;;12.02;2.95;;;;;;;;;;5141051;27;20431;-80
2023/03/23 11:40:15;;;;;;;10.65;2.35;;;;;;;;;;5141036;27;20038;-79
2023/03/23 11:42:45;;;;;;;11.13;2.30;;;;;;;;;;5162351;27;20045;-84
2023/03/23 11:45:22;;;;;;;12.60;2.50;;;;;;;;;;5144772;27;20045;-83
2023/03/23 11:48:07;;;;;;;13.07;2.70;;;;;;;;;;5141433;27;20456;-82
2023/03/23 11:50:34;;;;;;;13.27;2.60;;;;;;;;;;5152473;27;20049;-85
2023/03/23 11:53:31;;;;;;;12.73;2.50;;;;;;;;;;5147963;27;20379;-83
2023/03/23 11:55:57;;;;;;;12.00;2.90;;;;;;;;;;5067996;27;20056;-86
2023/03/23 11:58:24;;;;;;;10.80;2.40;;;;;;;;;;5120266;27;20038;-85
2023/03/23 12:00:56;;;;;;;12.98;2.50;;;;;;;;;;5120038;27;20038;-88
2023/03/23 12:03:33;;;;;;;15.50;2.47;;;;;;;;;;5135978;27;20047;-86
2023/03/23 12:06:07;;;;;;;13.90;2.38;;;;;;;;;;5125802;27;20051;-86
2023/03/23 12:08:49;;;;;;;12.70;2.47;;;;;;;;;;5136866;27;20046;-79
2023/03/23 12:11:41;;;;;;;17.25;3.33;;;;;;;;;;5119877;27;20097;-84
2023/03/23 12:14:07;;;;;;;11.25;2.83;;;;;;;;;;5123051;27;20042;-83
2023/03/23 12:16:39;;;;;;;11.38;2.50;;;;;;;;;;5148784;27;20050;-85
2023/03/23 12:19:24;;;;;;;12.43;2.15;;;;;;;;;;5138225;27;20035;-83
2023/03/23 12:22:03;;;;;;;10.23;2.70;;;;;;;;;;5145356;27;20390;-79
2023/03/23 12:24:49;;;;;;;14.20;2.42;;;;;;;;;;5131010;27;20034;-78
2023/03/23 12:27:24;;;;;;;14.70;2.40;;;;;;;;;;5156443;27;20045;-80
2023/03/23 12:30:13;;;;;;;10.50;2.25;;;;;;;;;;5175505;27;20121;-77
2023/03/23 12:33:03;;;;;;;12.10;2.25;;;;;;;;;;5155566;27;20046;-79
2023/03/23 12:35:33;;;;;;;9.88;2.03;;;;;;;;;;5126834;27;20046;-78
2023/03/23 12:38:02;;;;;;;14.40;2.45;;;;;;;;;;5156770;27;20061;-77
2023/03/23 12:40:31;;;;;;;11.30;2.67;;;;;;;;;;5139586;27;20038;-80
2023/03/23 12:42:58;;;;;;;15.32;2.70;;;;;;;;;;5175463;27;20030;-78
2023/03/23 12:45:24;;;;;;;13.88;2.75;;;;;;;;;;5174835;27;20117;-79
2023/03/23 12:47:56;;;;;;;15.35;2.33;;;;;;;;;;5148897;27;20390;-84
2023/03/23 12:50:28;;;;;;;12.85;2.75;;;;;;;;;;5118949;27;20042;-83
2023/03/23 12:53:11;;;;;;;12.35;2.22;;;;;;;;;;5168863;27;20413;-83
2023/03/23 12:55:44;;;;;;;16.55;3.25;;;;;;;;;;5144187;27;20034;-83
2023/03/23 12:58:13;;;;;;;15.77;2.47;;;;;;;;;;5141708;27;20092;-83
2023/03/23 13:00:50;;;;;;;14.65;3.42;;;;;;;;;;5118954;27;20049;-84
2023/03/23 13:03:23;;;;;;;14.10;2.72;;;;;;;;;;5118735;27;20127;-79
2023/03/23 13:06:01;;;;;;;10.55;2.42;;;;;;;;;;5127386;27;20077;-79
2023/03/23 13:08:50;;;;;;;10.57;2.47;;;;;;;;;;5148794;27;20042;-83
2023/03/23 13:11:22;;;;;;;14.93;3.05;;;;;;;;;;5108435;27;20093;-83
2023/03/23 13:13:51;;;;;;;14.52;2.65;;;;;;;;;;5125753;27;20043;-83
2023/03/23 13:16:28;;;;;;;13.82;2.80;;;;;;;;;;5135560;27;20054;-82
2023/03/23 13:19:04;;;;;;;18.45;3.10;;;;;;;;;;5136038;27;20058;-82
2023/03/23 13:21:35;;;;;;;10.48;2.58;;;;;;;;;;5132179;27;20054;-81
2023/03/23 13:24:10;;;;;;;15.75;2.60;;;;;;;;;;5125668;27;20035;-83
2023/03/23 13:26:40;;;;;;;13.73;2.73;;;;;;;;;;5135556;27;20074;-83
2023/03/23 13:29:11;;;;;;;16.58;2.97;;;;;;;;;;5146468;27;20322;-84
2023/03/23 13:31:41;;;;;;;14.48;2.97;;;;;;;;;;5136135;27;20396;-83
2023/03/23 13:34:16;;;;;;;17.30;3.30;;;;;;;;;;5108841;28;20043;-83
2023/03/23 13:36:43;;;;;;;14.90;2.83;;;;;;;;;;5132590;27;20498;-83
2023/03/23 13:39:36;;;;;;;15.07;3.10;;;;;;;;;;5154040;27;20038;-81
2023/03/23 13:42:21;;;;;;;15.77;2.90;;;;;;;;;;5134491;27;20057;-82
2023/03/23 13:44:51;;;;;;;19.40;2.95;;;;;;;;;;5137732;27;20047;-79
2023/03/23 13:47:23;;;;;;;14.68;2.42;;;;;;;;;;5154649;27;20487;-81
2023/03/23 13:49:59;;;;;;;13.32;2.72;;;;;;;;;;5139593;27;20122;-82
2023/03/23 13:52:44;;;;;;;15.27;3.35;;;;;;;;;;5154490;27;20391;-82
2023/03/23 13:55:16;;;;;;;11.98;2.60;;;;;;;;;;5145291;27;20125;-81
2023/03/23 13:57:56;;;;;;;13.98;2.85;;;;;;;;;;5150661;27;20429;-82
2023/03/23 14:00:25;;;;;;;13.25;2.08;;;;;;;;;;5153864;27;20035;-83
2023/03/23 14:02:52;;;;;;;12.82;2.55;;;;;;;;;;5139233;27;20078;-78
2023/03/23 14:05:18;;;;;;;16.80;2.97;;;;;;;;;;5157250;27;20035;-77
2023/03/23 14:07:53;;;;;;;14.65;2.53;;;;;;;;;;5138608;27;20050;-78
2023/03/23 14:10:19;;;;;;;11.63;2.50;;;;;;;;;;5135933;27;20096;-77
2023/03/23 14:12:46;;;;;;;12.20;2.80;;;;;;;;;;5127104;27;20049;-78
2023/03/23 14:15:14;;;;;;;15.90;3.05;;;;;;;;;;5141045;27;20067;-76
2023/03/23 14:17:45;;;;;;;10.98;2.70;;;;;;;;;;5159482;27;20046;-82
2023/03/23 14:20:39;;;;;;;12.63;3.00;;;;;;;;;;5145225;27;20047;-78
2023/03/23 14:23:06;;;;;;;14.43;2.80;;;;;;;;;;5174594;27;20077;-82
2023/03/23 14:25:33;;;;;;;12.82;2.70;;;;;;;;;;5159261;27;20042;-78
2023/03/23 14:27:59;;;;;;;17.00;2.42;;;;;;;;;;5159433;27;20037;-78
2023/03/23 14:30:34;;;;;;;13.32;2.25;;;;;;;;;;5159426;27;20479;-80
2023/03/23 14:33:08;;;;;;;10.77;2.53;;;;;;;;;;5159450;27;20038;-79
2023/03/23 14:35:36;;;;;;;11.27;2.38;;;;;;;;;;5141935;27;20037;-81
2023/03/23 14:38:02;;;;;;;9.20;2.13;;;;;;;;;;5159249;27;20034;-80
2023/03/23 14:40:29;;;;;;;12.38;2.67;;;;;;;;;;5159215;27;20490;-80
2023/03/23 14:42:56;;;;;;;9.90;2.05;;;;;;;;;;5159130;27;20117;-81
2023/03/23 14:45:23;;;;;;;13.13;2.40;;;;;;;;;;5142023;27;20049;-78
2023/03/23 14:47:52;;;;;;;11.00;2.20;;;;;;;;;;5158538;27;20034;-79